createdAt,value
2023-07-17T00:00:12.927Z,92.67
2023-07-17T00:02:42.053Z,92.20
2023-07-17T00:05:11.593Z,93.63
2023-07-17T00:07:40.622Z,91.81
2023-07-17T00:10:10.380Z,94.79
2023-07-17T00:12:38.940Z,95.23
2023-07-17T00:15:10.253Z,92.17
2023-07-17T00:17:39.958Z,93.66
2023-07-17T00:20:13.068Z,93.95
2023-07-17T00:22:42.341Z,92.31
2023-07-17T00:25:11.692Z,92.64
2023-07-17T00:27:40.311Z,93.63
2023-07-17T00:30:10.881Z,94.61
2023-07-17T00:32:39.283Z,94.75
2023-07-17T00:35:08.282Z,93.55
2023-07-17T00:37:36.767Z,94.65
2023-07-17T00:40:08.454Z,94.00
2023-07-17T00:42:37.012Z,93.93
2023-07-17T00:45:06.689Z,93.77
2023-07-17T00:47:37.756Z,93.87
2023-07-17T00:50:08.270Z,95.55
2023-07-17T00:52:36.728Z,94.33
2023-07-17T00:55:06.842Z,94.38
2023-07-17T00:57:38.345Z,97.50
2023-07-17T01:00:10.229Z,94.47
2023-07-17T01:02:40.699Z,97.23
2023-07-17T01:05:10.230Z,95.22
2023-07-17T01:07:40.534Z,99.66
2023-07-17T01:10:09.758Z,95.75
2023-07-17T01:12:38.872Z,96.89
2023-07-17T01:15:08.251Z,99.70
2023-07-17T01:17:37.690Z,99.07
2023-07-17T01:20:11.264Z,100.00
2023-07-17T01:22:42.644Z,97.57
2023-07-17T01:25:12.726Z,100.00
2023-07-17T01:27:41.303Z,100.00
2023-07-17T01:30:10.984Z,100.00
2023-07-17T01:32:39.548Z,100.00
2023-07-17T01:35:09.316Z,98.81
2023-07-17T01:37:37.771Z,98.83
2023-07-17T01:40:09.031Z,99.57
2023-07-17T01:42:38.925Z,100.00
2023-07-17T01:45:08.380Z,100.00
2023-07-17T01:47:37.119Z,100.00
2023-07-17T01:50:05.763Z,100.00
2023-07-17T01:52:35.206Z,98.48
2023-07-17T01:55:03.620Z,97.88
2023-07-17T01:57:33.369Z,99.56
2023-07-17T02:00:04.280Z,99.15
2023-07-17T02:02:35.349Z,98.55
2023-07-17T02:05:03.883Z,99.91
2023-07-17T02:07:33.113Z,100.00
2023-07-17T02:10:01.386Z,100.00
2023-07-17T02:12:30.913Z,100.00
2023-07-17T02:14:59.465Z,100.00
2023-07-17T02:17:29.464Z,98.21
2023-07-17T02:19:58.024Z,95.49
2023-07-17T02:22:26.536Z,97.54
2023-07-17T02:24:56.083Z,95.24
2023-07-17T02:27:24.877Z,96.23
2023-07-17T02:29:53.894Z,97.07
2023-07-17T02:32:22.328Z,95.52
2023-07-17T02:34:52.092Z,95.02
2023-07-17T02:37:20.706Z,93.25
2023-07-17T02:39:49.136Z,92.77
2023-07-17T02:42:17.546Z,92.53
2023-07-17T02:44:46.189Z,92.13
2023-07-17T02:47:14.733Z,92.64
2023-07-17T02:49:43.515Z,92.45
2023-07-17T02:52:13.337Z,93.78
2023-07-17T02:54:41.828Z,92.25
2023-07-17T02:57:11.423Z,94.47
2023-07-17T02:59:39.877Z,93.39
2023-07-17T03:02:08.317Z,92.18
2023-07-17T03:04:36.786Z,90.43
2023-07-17T03:07:05.569Z,91.81
2023-07-17T03:09:35.398Z,93.47
2023-07-17T03:12:04.351Z,93.31
2023-07-17T03:14:32.766Z,91.47
2023-07-17T03:17:01.069Z,93.51
2023-07-17T03:19:29.501Z,91.03
2023-07-17T03:21:57.965Z,88.97
2023-07-17T03:24:26.440Z,88.55
2023-07-17T03:26:56.248Z,87.17
2023-07-17T03:29:25.710Z,85.00
2023-07-17T03:31:54.122Z,86.16
2023-07-17T03:34:22.529Z,84.12
2023-07-17T03:36:51.073Z,84.00
2023-07-17T03:39:19.376Z,85.05
2023-07-17T03:41:47.780Z,82.71
2023-07-17T03:44:17.706Z,82.89
2023-07-17T03:46:46.716Z,80.63
2023-07-17T03:49:15.078Z,79.43
2023-07-17T03:51:43.453Z,81.45
2023-07-17T03:54:12.816Z,79.39
2023-07-17T03:56:42.333Z,78.60
2023-07-17T03:59:10.967Z,79.76
2023-07-17T04:01:42.225Z,78.79
2023-07-17T04:04:10.795Z,77.95
2023-07-17T04:06:39.232Z,76.67
2023-07-17T04:09:07.530Z,78.95
2023-07-17T04:11:36.402Z,78.89
2023-07-17T04:14:04.901Z,76.21
2023-07-17T04:16:37.764Z,79.36
2023-07-17T04:19:07.594Z,77.69
2023-07-17T04:21:36.017Z,79.69
2023-07-17T04:24:05.038Z,75.04
2023-07-17T04:26:33.538Z,73.33
2023-07-17T04:29:01.873Z,74.51
2023-07-17T04:31:30.294Z,73.64
2023-07-17T04:33:59.722Z,73.71
2023-07-17T04:36:29.497Z,75.22
2023-07-17T04:38:57.837Z,73.51
2023-07-17T04:41:26.423Z,74.42
2023-07-17T04:43:54.995Z,75.69
2023-07-17T04:46:23.502Z,73.32
2023-07-17T04:48:51.986Z,72.74
2023-07-17T04:51:21.923Z,73.50
2023-07-17T04:53:51.879Z,75.58
2023-07-17T04:56:20.303Z,75.41
2023-07-17T04:58:48.673Z,74.30
2023-07-17T05:01:17.526Z,74.46
2023-07-17T05:03:46.387Z,73.14
2023-07-17T05:06:15.393Z,73.99
2023-07-17T05:08:43.909Z,74.22
2023-07-17T05:11:13.863Z,74.67
2023-07-17T05:13:42.599Z,72.60
2023-07-17T05:16:11.074Z,72.28
2023-07-17T05:18:39.548Z,71.99
2023-07-17T05:21:07.927Z,70.30
2023-07-17T05:23:36.432Z,69.53
2023-07-17T05:26:04.947Z,69.50
2023-07-17T05:28:36.582Z,68.79
2023-07-17T05:31:05.728Z,68.48
2023-07-17T05:33:34.221Z,68.65
2023-07-17T05:36:02.721Z,65.60
2023-07-17T05:38:32.137Z,66.44
2023-07-17T05:41:01.034Z,68.01
2023-07-17T05:43:29.742Z,66.64
2023-07-17T05:45:59.625Z,64.00
2023-07-17T05:48:28.160Z,63.94
2023-07-17T05:50:56.860Z,59.17
2023-07-17T05:53:25.372Z,60.87
2023-07-17T05:55:55.125Z,65.13
2023-07-17T05:58:23.783Z,62.88
2023-07-17T06:00:52.229Z,61.47
2023-07-17T06:03:22.504Z,59.41
2023-07-17T06:05:51.055Z,60.84
2023-07-17T06:08:19.484Z,61.40
2023-07-17T06:10:48.849Z,61.74
2023-07-17T06:13:17.867Z,60.74
2023-07-17T06:15:47.884Z,62.71
2023-07-17T06:18:17.267Z,59.54
2023-07-17T06:20:48.185Z,60.91
2023-07-17T06:23:16.685Z,59.98
2023-07-17T06:25:46.565Z,60.99
2023-07-17T06:28:15.721Z,61.65
2023-07-17T06:30:47.714Z,60.49
2023-07-17T06:33:16.755Z,57.11
2023-07-17T06:35:47.583Z,57.10
2023-07-17T06:38:16.118Z,52.82
2023-07-17T06:40:44.623Z,55.22
2023-07-17T06:43:14.131Z,54.66
2023-07-17T06:45:42.673Z,55.45
2023-07-17T06:48:11.056Z,54.55
2023-07-17T06:50:39.426Z,54.51
2023-07-17T06:53:09.339Z,49.81
2023-07-17T06:55:37.691Z,45.68
2023-07-17T06:58:06.202Z,44.87
2023-07-17T07:00:34.693Z,46.78
2023-07-17T07:03:03.217Z,55.20
2023-07-17T07:05:31.775Z,49.41
2023-07-17T07:08:00.266Z,44.08
2023-07-17T07:10:30.153Z,47.73
2023-07-17T07:12:58.550Z,49.35
2023-07-17T07:15:28.017Z,48.59
2023-07-17T07:17:56.522Z,43.64
2023-07-17T07:20:25.003Z,40.92
2023-07-17T07:22:53.740Z,44.23
2023-07-17T07:25:22.431Z,40.01
2023-07-17T07:27:52.272Z,39.13
2023-07-17T07:30:20.839Z,37.15
2023-07-17T07:32:50.934Z,36.38
2023-07-17T07:35:20.597Z,33.64
2023-07-17T07:37:51.013Z,33.93
2023-07-17T07:40:20.454Z,34.24
2023-07-17T07:42:49.844Z,34.85
2023-07-17T07:45:21.543Z,38.72
2023-07-17T07:47:51.157Z,41.34
2023-07-17T07:50:21.273Z,42.28
2023-07-17T07:52:56.410Z,44.32
2023-07-17T07:55:26.856Z,42.65
2023-07-17T07:57:57.393Z,45.60
2023-07-17T08:00:28.257Z,46.83
2023-07-17T08:02:57.978Z,49.44
2023-07-17T08:05:27.503Z,49.56
2023-07-17T08:07:56.009Z,48.07
2023-07-17T08:10:25.709Z,46.38
2023-07-17T08:12:54.100Z,46.39
2023-07-17T08:15:22.559Z,45.82
2023-07-17T08:17:53.935Z,44.13
2023-07-17T08:20:22.372Z,44.33
2023-07-17T08:22:56.445Z,45.83
2023-07-17T08:25:25.214Z,49.33
2023-07-17T08:27:53.590Z,46.10
2023-07-17T08:30:22.164Z,46.68
2023-07-17T08:32:50.613Z,45.45
2023-07-17T08:35:21.150Z,45.75
2023-07-17T08:37:49.580Z,45.39
2023-07-17T08:40:18.267Z,44.66
2023-07-17T08:42:48.043Z,45.34
2023-07-17T08:45:16.707Z,47.09
2023-07-17T08:47:45.696Z,47.28
2023-07-17T08:50:15.252Z,45.13
2023-07-17T08:52:45.560Z,46.98
2023-07-17T08:55:14.022Z,45.41
2023-07-17T08:57:43.677Z,44.28
2023-07-17T09:00:17.344Z,44.68
2023-07-17T09:02:45.790Z,45.39
2023-07-17T09:05:14.341Z,45.18
2023-07-17T09:07:42.799Z,49.04
2023-07-17T09:10:21.610Z,48.84
2023-07-17T09:12:54.845Z,45.08
2023-07-17T09:15:23.779Z,43.04
2023-07-17T09:17:52.231Z,42.40
2023-07-17T09:20:21.852Z,44.69
2023-07-17T09:22:51.032Z,42.55
2023-07-17T09:25:21.008Z,42.47
2023-07-17T09:27:51.564Z,42.54
2023-07-17T09:30:22.517Z,41.51
2023-07-17T09:32:52.822Z,40.80
2023-07-17T09:35:24.722Z,42.05
2023-07-17T09:37:53.805Z,42.82
2023-07-17T09:40:23.684Z,41.07
2023-07-17T09:42:55.506Z,41.80
2023-07-17T09:45:24.052Z,40.39
2023-07-17T09:47:53.061Z,37.16
2023-07-17T09:50:25.502Z,43.60
2023-07-17T09:52:54.927Z,46.54
2023-07-17T09:55:27.650Z,47.58
2023-07-17T09:58:00.521Z,42.71
2023-07-17T10:00:30.207Z,49.23
2023-07-17T10:03:05.916Z,40.37
2023-07-17T10:05:35.566Z,44.51
2023-07-17T10:08:06.647Z,41.74
2023-07-17T10:10:38.012Z,45.50
2023-07-17T10:13:07.588Z,41.04
2023-07-17T10:15:36.634Z,41.92
2023-07-17T10:18:07.490Z,40.07
2023-07-17T10:20:39.787Z,43.90
2023-07-17T10:23:13.184Z,42.34
2023-07-17T10:25:43.105Z,43.12
2023-07-17T10:28:12.260Z,45.80
2023-07-17T10:30:40.772Z,46.61
2023-07-17T10:33:12.861Z,43.57
2023-07-17T10:35:50.398Z,45.49
2023-07-17T10:38:20.043Z,43.92
2023-07-17T10:40:50.088Z,46.81
2023-07-17T10:43:20.393Z,43.52
2023-07-17T10:45:50.214Z,45.04
2023-07-17T10:48:19.886Z,45.56
2023-07-17T10:50:50.865Z,48.61
2023-07-17T10:53:19.325Z,50.38
2023-07-17T10:55:48.657Z,50.53
2023-07-17T10:58:20.236Z,46.98
2023-07-17T11:00:49.017Z,46.67
2023-07-17T11:03:18.182Z,44.87
2023-07-17T11:05:48.068Z,39.88
2023-07-17T11:08:16.453Z,37.62
2023-07-17T11:10:46.114Z,41.24
2023-07-17T11:13:14.727Z,37.50
2023-07-17T11:15:45.229Z,32.90
2023-07-17T11:18:13.839Z,33.79
2023-07-17T11:20:42.520Z,37.10
2023-07-17T11:23:14.754Z,37.65
2023-07-17T11:25:43.501Z,37.85
2023-07-17T11:28:12.599Z,40.32
2023-07-17T11:30:41.281Z,39.76
2023-07-17T11:33:11.575Z,40.17
2023-07-17T11:35:51.064Z,41.83
2023-07-17T11:38:21.945Z,40.86
2023-07-17T11:40:54.503Z,41.92
2023-07-17T11:43:27.279Z,42.46
2023-07-17T11:45:57.966Z,45.33
2023-07-17T11:48:27.942Z,47.15
2023-07-17T11:50:57.816Z,46.52
2023-07-17T11:53:28.475Z,43.20
2023-07-17T11:55:56.934Z,44.57
2023-07-17T11:58:26.960Z,44.72
2023-07-17T12:00:56.520Z,47.86
2023-07-17T12:03:25.312Z,45.77
2023-07-17T12:05:55.443Z,48.98
2023-07-17T12:08:23.848Z,43.59
2023-07-17T12:10:52.282Z,45.63
2023-07-17T12:13:20.656Z,44.16
2023-07-17T12:15:49.095Z,43.33
2023-07-17T12:18:17.410Z,42.71
2023-07-17T12:20:45.799Z,41.58
2023-07-17T12:23:16.075Z,42.46
2023-07-17T12:25:46.858Z,45.34
2023-07-17T12:28:15.370Z,45.84
2023-07-17T12:30:44.565Z,43.65
2023-07-17T12:33:13.367Z,45.92
2023-07-17T12:35:43.564Z,47.77
2023-07-17T12:38:12.124Z,47.47
2023-07-17T12:40:41.949Z,50.47
2023-07-17T12:43:10.443Z,49.84
2023-07-17T12:45:38.990Z,47.00
2023-07-17T12:48:08.178Z,45.65
2023-07-17T12:50:36.802Z,45.62
2023-07-17T12:53:05.379Z,44.33
2023-07-17T12:55:33.709Z,43.04
2023-07-17T12:58:04.778Z,44.13
2023-07-17T13:00:33.552Z,42.10
2023-07-17T13:03:01.958Z,44.30
2023-07-17T13:05:30.542Z,47.09
2023-07-17T13:07:59.012Z,46.40
2023-07-17T13:10:27.468Z,47.83
2023-07-17T13:12:55.848Z,49.24
2023-07-17T13:15:25.803Z,48.10
2023-07-17T13:17:54.259Z,46.42
2023-07-17T13:20:22.804Z,45.28
2023-07-17T13:22:51.424Z,50.27
2023-07-17T13:25:20.712Z,48.44
2023-07-17T13:27:49.532Z,48.60
2023-07-17T13:30:19.030Z,44.43
2023-07-17T13:32:48.885Z,47.53
2023-07-17T13:35:17.354Z,48.23
2023-07-17T13:37:46.468Z,45.33
2023-07-17T13:40:15.269Z,46.55
2023-07-17T13:42:43.769Z,44.29
2023-07-17T13:45:12.442Z,43.64
2023-07-17T13:47:40.916Z,43.84
2023-07-17T13:50:11.421Z,42.11
2023-07-17T13:52:39.831Z,42.24
2023-07-17T13:55:09.984Z,42.05
2023-07-17T13:57:38.521Z,43.57
2023-07-17T14:00:08.186Z,42.93
2023-07-17T14:02:37.543Z,43.60
2023-07-17T14:05:06.604Z,44.00
2023-07-17T14:07:36.330Z,41.76
2023-07-17T14:10:04.983Z,44.93
2023-07-17T14:12:33.568Z,44.80
2023-07-17T14:15:03.004Z,44.14
2023-07-17T14:17:33.987Z,45.41
2023-07-17T14:20:02.453Z,44.30
2023-07-17T14:22:32.595Z,47.00
2023-07-17T14:25:02.549Z,50.50
2023-07-17T14:27:32.306Z,49.55
2023-07-17T14:30:00.660Z,45.13
2023-07-17T14:32:29.193Z,44.47
2023-07-17T14:34:58.554Z,43.28
2023-07-17T14:37:26.902Z,44.95
2023-07-17T14:39:55.358Z,46.56
2023-07-17T14:42:25.454Z,50.01
2023-07-17T14:44:53.925Z,43.62
2023-07-17T14:47:22.931Z,45.82
2023-07-17T14:49:51.574Z,43.11
2023-07-17T14:52:20.654Z,43.18
2023-07-17T14:54:49.113Z,44.25
2023-07-17T14:57:17.489Z,46.47
2023-07-17T14:59:47.341Z,49.53
2023-07-17T15:02:15.831Z,46.18
2023-07-17T15:04:44.221Z,49.71
2023-07-17T15:07:13.664Z,44.18
2023-07-17T15:09:42.112Z,43.80
2023-07-17T15:12:10.929Z,44.64
2023-07-17T15:14:39.516Z,44.62
2023-07-17T15:17:09.480Z,42.19
2023-07-17T15:19:42.038Z,44.78
2023-07-17T15:22:10.925Z,45.69
2023-07-17T15:24:39.252Z,43.39
2023-07-17T15:27:08.050Z,47.12
2023-07-17T15:29:36.794Z,45.87
2023-07-17T15:32:05.606Z,44.58
2023-07-17T15:34:35.455Z,45.78
2023-07-17T15:37:04.024Z,47.14
2023-07-17T15:39:33.754Z,49.82
2023-07-17T15:42:02.175Z,46.65
2023-07-17T15:44:30.681Z,49.76
2023-07-17T15:46:59.979Z,49.68
2023-07-17T15:49:28.795Z,49.52
2023-07-17T15:51:59.050Z,48.06
2023-07-17T15:54:27.442Z,51.37
2023-07-17T15:56:55.818Z,52.51
2023-07-17T15:59:24.302Z,53.34
2023-07-17T16:01:52.824Z,52.32
2023-07-17T16:04:21.279Z,54.93
2023-07-17T16:06:49.703Z,52.03
2023-07-17T16:09:22.497Z,51.04
2023-07-17T16:11:51.466Z,50.09
2023-07-17T16:14:19.757Z,57.96
2023-07-17T16:16:48.433Z,56.50
2023-07-17T16:19:16.909Z,52.85
2023-07-17T16:21:45.311Z,55.43
2023-07-17T16:24:13.783Z,53.50
2023-07-17T16:26:43.672Z,53.38
2023-07-17T16:29:12.249Z,55.41
2023-07-17T16:31:40.842Z,57.80
2023-07-17T16:34:09.352Z,60.47
2023-07-17T16:36:37.894Z,60.30
2023-07-17T16:39:06.576Z,63.65
2023-07-17T16:41:35.242Z,57.26
2023-07-17T16:44:06.568Z,56.59
2023-07-17T16:46:35.307Z,56.88
2023-07-17T16:49:03.868Z,57.83
2023-07-17T16:51:32.271Z,58.53
2023-07-17T16:54:00.715Z,58.54
2023-07-17T16:56:29.096Z,57.62
2023-07-17T16:58:57.712Z,58.81
2023-07-17T17:01:29.027Z,59.88
2023-07-17T17:03:57.479Z,59.36
2023-07-17T17:06:26.031Z,61.09
2023-07-17T17:09:10.681Z,62.03
2023-07-17T17:11:39.047Z,60.82
2023-07-17T17:14:09.064Z,61.30
2023-07-17T17:16:39.456Z,62.57
2023-07-17T17:19:09.703Z,63.00
2023-07-17T17:21:38.217Z,62.67
2023-07-17T17:24:07.306Z,63.44
2023-07-17T17:26:36.422Z,67.12
2023-07-17T17:29:04.868Z,65.06
2023-07-17T17:31:33.326Z,65.02
2023-07-17T17:34:03.086Z,64.47
2023-07-17T17:36:31.906Z,66.46
2023-07-17T17:39:00.356Z,68.46
2023-07-17T17:41:28.898Z,66.26
2023-07-17T17:43:57.346Z,66.81
2023-07-17T17:46:26.525Z,66.67
2023-07-17T17:48:54.956Z,66.15
2023-07-17T17:51:24.862Z,66.66
2023-07-17T17:53:53.439Z,67.03
2023-07-17T17:56:21.889Z,68.71
2023-07-17T17:58:50.313Z,68.14
2023-07-17T18:01:19.167Z,69.77
2023-07-17T18:03:47.977Z,70.15
2023-07-17T18:06:16.479Z,69.71
2023-07-17T18:08:46.264Z,69.64
2023-07-17T18:11:16.318Z,70.20
2023-07-17T18:13:45.994Z,71.70
2023-07-17T18:16:14.645Z,71.13
2023-07-17T18:18:44.177Z,72.86
2023-07-17T18:21:12.849Z,72.51
2023-07-17T18:23:42.247Z,72.33
2023-07-17T18:26:12.286Z,72.12
2023-07-17T18:28:40.680Z,71.80
2023-07-17T18:31:09.573Z,71.17
2023-07-17T18:33:38.163Z,71.86
2023-07-17T18:36:09.160Z,71.48
2023-07-17T18:38:38.354Z,72.32
2023-07-17T18:41:06.808Z,72.97
2023-07-17T18:43:36.777Z,73.06
2023-07-17T18:46:05.297Z,72.28
2023-07-17T18:48:33.794Z,73.35
2023-07-17T18:51:03.310Z,74.30
2023-07-17T18:53:31.902Z,75.05
2023-07-17T18:56:00.342Z,75.54
2023-07-17T18:58:28.759Z,76.36
2023-07-17T19:00:58.743Z,75.44
2023-07-17T19:03:27.237Z,76.56
2023-07-17T19:05:57.151Z,76.20
2023-07-17T19:08:27.196Z,76.43
2023-07-17T19:10:55.709Z,76.35
2023-07-17T19:13:24.392Z,76.92
2023-07-17T19:15:52.956Z,77.27
2023-07-17T19:18:22.769Z,78.00
2023-07-17T19:20:51.319Z,79.27
2023-07-17T19:23:20.389Z,80.86
2023-07-17T19:25:49.078Z,80.22
2023-07-17T19:28:17.473Z,80.07
2023-07-17T19:30:47.743Z,79.87
2023-07-17T19:33:16.508Z,81.55
2023-07-17T19:35:46.651Z,81.39
2023-07-17T19:38:14.986Z,80.72
2023-07-17T19:40:43.421Z,81.40
2023-07-17T19:43:12.238Z,82.05
2023-07-17T19:45:40.761Z,82.28
2023-07-17T19:48:10.933Z,82.15
2023-07-17T19:50:39.528Z,81.74
2023-07-17T20:46:39.407Z,82.61
2023-07-17T20:49:07.865Z,82.95
2023-07-17T20:51:36.308Z,82.16
2023-07-17T20:54:04.926Z,81.95
2023-07-17T20:56:34.106Z,81.81
2023-07-17T20:59:02.525Z,81.77
2023-07-17T21:01:31.000Z,82.21
2023-07-17T21:04:01.951Z,81.79
2023-07-17T21:06:30.863Z,81.72
2023-07-17T21:08:59.339Z,81.57
2023-07-17T21:11:28.300Z,81.75
2023-07-17T21:13:58.453Z,82.81
2023-07-17T21:16:26.822Z,82.69
2023-07-17T21:18:56.040Z,83.68
2023-07-17T21:21:26.053Z,83.62
2023-07-17T21:23:54.409Z,84.47
2023-07-17T21:26:22.848Z,84.36
2023-07-17T21:28:58.405Z,84.79
2023-07-17T21:31:26.971Z,84.43
2023-07-17T21:33:55.347Z,84.42
2023-07-17T21:36:23.823Z,85.13
2023-07-17T21:38:53.689Z,84.22
2023-07-17T21:41:22.232Z,85.10
2023-07-17T21:43:51.350Z,84.69
2023-07-17T21:46:19.787Z,84.63
2023-07-17T21:48:48.263Z,84.31
2023-07-17T21:51:20.894Z,84.82
2023-07-17T21:53:49.593Z,86.26
2023-07-17T21:56:19.310Z,86.83
2023-07-17T21:58:47.700Z,87.63
2023-07-17T22:01:16.379Z,87.48
